KMQB

Macomb Municipal Airport

Macomb, Illinois, USA
METAR KMQB 171635Z AUTO 31007KT 10SM SCT015 BKN020 OVC027 24/21 A3001 RMK AO2 T02390208
Observed Flight Rules
Aug-17 @ 16:35 UTC (18 minutes ago) Marginal Visual Flight Rules
Wind Visibility Clouds
310° at 7 knots 10 miles
  • Scattered at 1,500' AGL
  • Broken at 2,000' AGL
  • Overcast at 2,700' AGL
Temperatures Readings
Current 24°C / 75°F
Dewpoint 21°C / 70°F
Humidity 83%
Altimeter 30.01" Hg
Pressure 1016 hPa
Elevation 215
METAR KMQB 171635Z AUTO 31007KT 10SM SCT015 BKN020 OVC027 24/21 A3001 RMK AO2 T02390208
Observed Flight Rules
Aug-17 @ 16:35 UTC
(18 minutes ago)
MVFR
Wind Visibility
310° at 7 knots 10 miles
Clouds
  • Scattered at 1,500' AGL
  • Broken at 2,000' AGL
  • Overcast at 2,700' AGL
Temperature Dewpoint
24°C / 75°F 21°C / 70°F
Humidity Altimeter Pressure
83% 30.01" Hg 1016 hPa